Time;durP1;ratioP1;P1;durP2;ratioP2;P2;SDS_P1;SDS_P2;PMS_P1;PMS_P2;Temp;Humidity;BMP_temperature;BMP_pressure;BME280_temperature;BME280_humidity;BME280_pressure;Samples;Min_cycle;Max_cycle;Signal;HPM_P1;HPM_P2
2023/01/12 00:01:39;;;;;;;13.52;2.08;;;7.60;99.90;;;;;;5066945;28;20044;-45
2023/01/12 00:04:05;;;;;;;14.15;1.90;;;6.60;99.90;;;;;;5066373;28;20441;-45
2023/01/12 00:06:31;;;;;;;7.65;1.08;;;7.60;99.90;;;;;;5067055;28;20045;-45
2023/01/12 00:08:57;;;;;;;10.90;1.38;;;6.70;99.90;;;;;;5066590;28;20116;-44
2023/01/12 00:11:23;;;;;;;13.43;2.03;;;7.40;99.90;;;;;;5066620;28;20055;-45
2023/01/12 00:13:48;;;;;;;11.13;1.63;;;7.00;99.90;;;;;;5066678;28;20056;-44
2023/01/12 00:16:38;;;;;;;18.10;2.00;;;7.20;99.90;;;;;;5066735;28;20051;-44
2023/01/12 00:19:15;;;;;;;15.52;2.63;;;7.10;99.90;;;;;;5066843;28;20156;-45
2023/01/12 00:24:16;;;;;;;18.50;4.63;;;6.90;99.90;;;;;;5066744;28;20494;-45
2023/01/12 00:26:42;;;;;;;19.40;3.10;;;7.70;99.90;;;;;;5066973;28;20040;-45
2023/01/12 00:29:08;;;;;;;16.45;3.13;;;7.40;99.90;;;;;;5067106;28;20401;-44
2023/01/12 00:31:33;;;;;;;16.30;3.42;;;6.90;99.90;;;;;;5049339;28;20067;-45
2023/01/12 00:33:59;;;;;;;19.05;3.05;;;6.90;99.90;;;;;;5066567;28;20044;-44
2023/01/12 00:36:25;;;;;;;18.20;2.42;;;6.90;99.90;;;;;;5066707;28;20044;-44
2023/01/12 00:38:50;;;;;;;17.67;3.40;;;6.90;99.90;;;;;;5067027;28;20459;-45
2023/01/12 00:46:44;;;;;;;15.27;2.25;;;7.40;99.90;;;;;;5065929;28;20044;-45
2023/01/12 00:49:10;;;;;;;18.17;2.88;;;7.20;99.90;;;;;;5065573;28;20048;-45
2023/01/12 00:51:36;;;;;;;17.75;2.28;;;8.80;99.90;;;;;;5065840;28;20124;-44
2023/01/12 00:54:03;;;;;;;19.98;2.85;;;7.70;99.90;;;;;;5065701;28;20048;-45
2023/01/12 00:56:32;;;;;;;21.70;2.83;;;6.70;99.90;;;;;;5065935;28;20289;-46
2023/01/12 00:58:58;;;;;;;22.52;2.95;;;7.70;99.90;;;;;;5066321;28;20111;-47
2023/01/12 01:01:23;;;;;;;22.30;2.85;;;6.80;99.90;;;;;;5065744;28;20601;-44
2023/01/12 01:03:49;;;;;;;20.10;3.40;;;6.70;99.90;;;;;;5065717;28;20093;-44
2023/01/12 01:06:15;;;;;;;28.05;2.95;;;7.10;99.90;;;;;;5065782;28;20214;-45
2023/01/12 01:08:40;;;;;;;26.30;2.85;;;6.90;99.90;;;;;;5065963;28;20045;-45
2023/01/12 01:11:10;;;;;;;23.00;2.83;;;7.00;99.90;;;;;;5065691;28;20049;-45
2023/01/12 01:13:39;;;;;;;22.08;2.78;;;7.10;99.90;;;;;;5065929;28;20051;-45
2023/01/12 01:16:06;;;;;;;24.98;5.28;;;7.00;99.90;;;;;;5065792;28;20043;-45
2023/01/12 01:18:33;;;;;;;20.40;2.88;;;7.00;99.90;;;;;;5065935;28;20037;-45
2023/01/12 01:20:59;;;;;;;19.38;3.95;;;7.80;99.90;;;;;;5066146;28;20119;-44
2023/01/12 01:23:26;;;;;;;19.40;2.63;;;7.20;99.90;;;;;;5065853;28;20124;-44
2023/01/12 01:25:52;;;;;;;16.90;2.63;;;7.10;99.90;;;;;;5066308;28;20044;-45
2023/01/12 01:28:17;;;;;;;25.33;3.10;;;7.50;99.90;;;;;;5065798;28;20490;-45
2023/01/12 01:30:45;;;;;;;17.83;2.13;;;6.90;99.90;;;;;;5066222;28;20115;-45
2023/01/12 01:33:11;;;;;;;17.05;2.90;;;7.00;99.90;;;;;;5065853;28;20043;-44
2023/01/12 01:35:37;;;;;;;15.77;3.30;;;6.90;99.90;;;;;;5065082;28;20136;-45
2023/01/12 01:38:03;;;;;;;24.63;3.17;;;7.60;99.90;;;;;;5065988;28;20091;-45
2023/01/12 01:40:30;;;;;;;25.35;3.00;;;7.20;99.90;;;;;;5065629;28;20063;-44
2023/01/12 01:42:56;;;;;;;22.67;3.13;;;6.60;99.90;;;;;;5065794;28;20128;-45
2023/01/12 01:45:22;;;;;;;28.08;3.88;;;7.80;99.90;;;;;;5064803;28;20128;-45
2023/01/12 01:48:12;;;;;;;20.95;3.78;;;6.90;99.90;;;;;;5065480;28;20041;-45
2023/01/12 01:50:42;;;;;;;25.67;2.67;;;6.80;99.90;;;;;;5065636;28;20450;-46
2023/01/12 01:53:13;;;;;;;21.45;3.35;;;7.10;99.90;;;;;;5068268;28;20032;-43
2023/01/12 01:55:48;;;;;;;26.73;5.13;;;7.00;99.90;;;;;;5051087;28;20049;-44
2023/01/12 01:58:32;;;;;;;31.08;4.47;;;7.20;99.90;;;;;;5069092;28;20044;-44
2023/01/12 02:00:58;;;;;;;17.92;4.07;;;7.40;99.90;;;;;;5069291;28;20075;-46
2023/01/12 02:03:25;;;;;;;21.15;2.97;;;7.10;99.90;;;;;;5068886;28;20068;-45
2023/01/12 02:05:52;;;;;;;16.20;2.80;;;7.30;99.90;;;;;;5068746;28;20044;-45
2023/01/12 02:08:44;;;;;;;20.63;3.50;;;7.90;99.90;;;;;;5068583;28;20588;-44
2023/01/12 02:17:10;;;;;;;21.10;3.42;;;8.50;99.90;;;;;;5068674;28;20118;-44
2023/01/12 02:19:56;;;;;;;20.92;2.90;;;7.30;99.90;;;;;;5068659;28;20072;-45
2023/01/12 02:22:46;;;;;;;24.65;4.07;;;7.30;99.90;;;;;;5068493;28;20037;-48
2023/01/12 02:25:12;;;;;;;15.45;2.72;;;7.30;99.90;;;;;;5068361;28;20048;-46
2023/01/12 02:27:50;;;;;;;17.75;3.13;;;7.30;99.90;;;;;;5068536;28;20848;-44
2023/01/12 02:30:57;;;;;;;18.98;3.80;;;7.30;99.90;;;;;;5068902;28;20114;-47
2023/01/12 02:33:42;;;;;;;20.58;2.47;;;7.30;99.90;;;;;;5068084;28;20044;-45
2023/01/12 02:36:16;;;;;;;11.60;2.20;;;7.30;99.90;;;;;;5068613;28;20036;-44
2023/01/12 02:38:56;;;;;;;17.58;2.22;;;7.30;99.90;;;;;;5068925;28;20433;-45
2023/01/12 02:44:47;;;;;;;20.00;3.75;;;7.30;99.90;;;;;;5066578;28;20053;-45
2023/01/12 02:47:23;;;;;;;17.95;4.07;;;7.90;99.90;;;;;;5068179;28;20587;-44
2023/01/12 02:49:54;;;;;;;16.70;3.75;;;8.00;99.90;;;;;;5068412;28;20623;-45
2023/01/12 02:52:24;;;;;;;18.42;3.95;;;7.40;99.90;;;;;;5068155;28;20043;-45
2023/01/12 02:54:52;;;;;;;17.80;3.47;;;7.40;99.90;;;;;;5068153;28;20045;-46
2023/01/12 02:57:19;;;;;;;21.17;4.05;;;7.40;99.90;;;;;;5068223;28;20045;-44
2023/01/12 02:59:49;;;;;;;21.65;4.30;;;7.40;99.90;;;;;;5068187;28;20517;-45
2023/01/12 03:02:20;;;;;;;21.17;4.32;;;7.80;99.90;;;;;;5067481;28;20048;-45
2023/01/12 03:04:46;;;;;;;15.32;3.22;;;7.40;99.90;;;;;;5066829;28;20456;-45
2023/01/12 03:07:32;;;;;;;26.15;4.57;;;7.40;99.90;;;;;;5067523;28;20033;-44
2023/01/12 03:10:41;;;;;;;29.30;4.72;;;7.40;99.90;;;;;;5067717;28;20446;-44
2023/01/12 03:13:11;;;;;;;30.23;3.67;;;7.80;99.90;;;;;;5027119;28;20049;-45
2023/01/12 03:15:42;;;;;;;21.58;4.03;;;7.40;99.90;;;;;;5047565;28;20049;-45
2023/01/12 03:18:15;;;;;;;19.60;5.30;;;7.50;99.90;;;;;;5047437;28;20052;-46
2023/01/12 03:20:54;;;;;;;27.33;5.72;;;7.50;99.90;;;;;;5047051;28;20064;-45
2023/01/12 03:23:27;;;;;;;30.80;5.45;;;7.90;99.90;;;;;;5046781;28;20517;-44
2023/01/12 03:25:56;;;;;;;27.35;4.35;;;8.10;99.90;;;;;;5047026;28;20045;-45
2023/01/12 03:28:27;;;;;;;23.63;4.35;;;7.20;99.90;;;;;;5047240;28;20057;-45
2023/01/12 03:31:02;;;;;;;22.88;4.68;;;7.40;99.90;;;;;;5047649;28;20041;-45
2023/01/12 03:33:28;;;;;;;30.33;4.95;;;7.50;99.90;;;;;;5047378;28;20064;-44
2023/01/12 03:36:28;;;;;;;24.08;5.53;;;8.50;99.90;;;;;;5046931;28;20045;-44
2023/01/12 03:39:26;;;;;;;24.50;4.75;;;7.50;99.90;;;;;;5047232;28;20037;-46
2023/01/12 03:42:03;;;;;;;25.48;4.65;;;7.50;99.90;;;;;;5047243;28;20108;-45
2023/01/12 03:44:52;;;;;;;24.20;5.20;;;7.50;99.90;;;;;;5046850;28;20075;-44
2023/01/12 03:47:21;;;;;;;21.98;3.97;;;7.50;99.90;;;;;;5046936;28;20490;-45
2023/01/12 03:50:04;;;;;;;31.52;7.68;;;7.50;99.90;;;;;;5047537;28;20041;-43
2023/01/12 03:52:30;;;;;;;;;;;7.60;99.90;;;;;;5047515;28;20082;-44
2023/01/12 03:54:58;;;;;;;24.48;4.93;;;7.80;99.90;;;;;;5047355;28;19958;-45
2023/01/12 03:57:25;;;;;;;20.23;4.95;;;7.60;99.90;;;;;;5046893;28;20049;-45
2023/01/12 03:59:52;;;;;;;15.35;4.05;;;8.10;99.90;;;;;;5047105;28;20078;-44
2023/01/12 04:02:18;;;;;;;16.48;3.22;;;7.60;99.90;;;;;;5047179;28;20119;-45
2023/01/12 04:04:44;;;;;;;13.80;2.83;;;7.60;99.90;;;;;;5047062;28;20124;-44
2023/01/12 04:07:09;;;;;;;14.65;3.80;;;7.60;99.90;;;;;;5046774;28;20383;-44
2023/01/12 04:09:36;;;;;;;20.10;4.50;;;7.60;99.90;;;;;;5046651;28;20037;-44
2023/01/12 04:12:10;;;;;;;17.67;4.55;;;7.70;99.90;;;;;;5055520;28;20057;-45
2023/01/12 04:14:42;;;;;;;17.02;4.15;;;7.60;99.90;;;;;;5066670;28;20398;-45
2023/01/12 04:17:10;;;;;;;16.05;4.18;;;8.20;99.90;;;;;;5066653;28;20052;-44
2023/01/12 04:19:36;;;;;;;16.42;3.20;;;7.60;99.90;;;;;;5066226;28;20040;-44
2023/01/12 04:24:47;;;;;;;17.65;4.40;;;8.20;99.90;;;;;;5066559;28;20079;-44
2023/01/12 04:27:14;;;;;;;11.55;3.22;;;7.80;99.90;;;;;;5066655;28;20044;-45
2023/01/12 04:29:40;;;;;;;19.67;5.03;;;7.60;99.90;;;;;;5066743;28;20068;-45
2023/01/12 04:32:06;;;;;;;19.70;4.65;;;8.00;99.90;;;;;;5066111;28;20068;-45
2023/01/12 04:34:31;;;;;;;16.52;4.25;;;7.40;99.90;;;;;;5066507;28;20036;-45
2023/01/12 04:36:58;;;;;;;18.27;4.55;;;7.70;99.90;;;;;;5066374;28;20047;-44
2023/01/12 04:39:24;;;;;;;13.52;4.80;;;7.80;99.90;;;;;;5066822;28;20044;-44
2023/01/12 04:41:50;;;;;;;12.93;4.15;;;8.60;99.90;;;;;;5066538;28;20097;-44
2023/01/12 04:44:15;;;;;;;14.10;4.20;;;8.40;99.90;;;;;;5066661;28;20044;-45
2023/01/12 04:46:41;;;;;;;12.90;3.25;;;8.50;99.90;;;;;;5066622;28;20040;-44
2023/01/12 04:49:07;;;;;;;7.70;2.65;;;8.70;99.90;;;;;;5066345;28;20459;-45
2023/01/12 04:51:33;;;;;;;8.15;2.63;;;7.70;99.90;;;;;;5066165;28;20037;-45
2023/01/12 04:53:58;;;;;;;10.73;3.00;;;7.70;99.90;;;;;;5066067;28;20056;-45
2023/01/12 04:56:24;;;;;;;13.02;3.60;;;7.70;99.90;;;;;;5065956;28;20048;-46
2023/01/12 04:58:55;;;;;;;15.27;4.18;;;7.70;99.90;;;;;;5065690;28;20047;-44
2023/01/12 05:01:21;;;;;;;14.98;4.38;;;7.50;99.90;;;;;;5065995;28;20032;-45
2023/01/12 05:03:46;;;;;;;15.07;4.32;;;7.80;99.90;;;;;;5047303;28;20071;-46
2023/01/12 05:06:12;;;;;;;15.23;3.53;;;7.70;99.90;;;;;;5066149;28;20120;-45
2023/01/12 05:11:27;;;;;;;7.88;2.78;;;7.70;99.90;;;;;;5066021;28;20113;-44
2023/01/12 05:13:54;;;;;;;10.48;2.67;;;7.50;99.90;;;;;;5066044;28;20097;-47
2023/01/12 05:16:20;;;;;;;9.70;1.83;;;7.60;99.90;;;;;;5065884;28;20041;-45
2023/01/12 05:18:46;;;;;;;10.43;2.20;;;7.60;99.90;;;;;;5065648;28;20477;-44
2023/01/12 05:21:16;;;;;;;10.68;1.83;;;7.60;99.90;;;;;;5065773;28;20040;-45
2023/01/12 05:23:43;;;;;;;7.13;1.33;;;7.60;99.90;;;;;;5065412;28;20366;-45
2023/01/12 05:26:10;;;;;;;8.32;1.60;;;8.30;99.90;;;;;;5065803;28;20079;-46
2023/01/12 05:28:36;;;;;;;6.45;2.08;;;7.50;99.90;;;;;;5069256;28;20390;-45
2023/01/12 05:31:07;;;;;;;8.85;1.50;;;8.20;99.90;;;;;;5069364;28;20051;-45
2023/01/12 05:33:33;;;;;;;10.17;1.87;;;7.50;99.90;;;;;;5069469;28;20051;-46
2023/01/12 05:36:02;;;;;;;8.73;1.80;;;8.00;99.90;;;;;;5068859;28;20114;-45
2023/01/12 05:38:28;;;;;;;7.65;1.38;;;7.50;99.90;;;;;;5034104;28;20045;-44
2023/01/12 05:40:57;;;;;;;4.47;1.42;;;7.70;99.90;;;;;;5069047;28;20052;-46
2023/01/12 05:46:07;;;;;;;6.05;1.38;;;7.40;99.90;;;;;;5069772;28;20087;-45
2023/01/12 05:48:33;;;;;;;4.15;1.25;;;7.30;99.90;;;;;;5069566;28;20067;-43
2023/01/12 05:51:03;;;;;;;8.40;1.45;;;7.40;99.90;;;;;;5069617;28;20044;-44
2023/01/12 05:53:29;;;;;;;6.50;1.33;;;7.40;99.90;;;;;;5051666;28;20052;-45
2023/01/12 05:55:55;;;;;;;7.05;0.90;;;7.40;99.90;;;;;;5069621;28;20044;-44
2023/01/12 05:58:21;;;;;;;5.68;1.27;;;8.40;99.90;;;;;;5069531;28;20375;-44
2023/01/12 06:00:46;;;;;;;9.77;2.42;;;7.40;99.90;;;;;;5069022;28;20036;-44
2023/01/12 06:03:12;;;;;;;5.80;0.95;;;7.90;99.90;;;;;;5068736;28;20808;-45
2023/01/12 06:05:38;;;;;;;5.82;0.88;;;7.40;99.90;;;;;;5068502;28;20136;-46
2023/01/12 06:08:04;;;;;;;4.70;0.85;;;7.40;99.90;;;;;;5068727;28;20044;-45
2023/01/12 06:10:29;;;;;;;4.63;0.75;;;7.40;99.90;;;;;;5068654;28;20611;-45
2023/01/12 06:16:04;;;;;;;4.30;0.90;;;8.40;99.90;;;;;;5005922;28;20058;-45
2023/01/12 06:18:37;;;;;;;6.15;1.02;;;7.50;99.90;;;;;;5006549;28;20050;-45
2023/01/12 06:21:05;;;;;;;3.80;0.70;;;7.50;99.90;;;;;;5039907;28;20084;-45
2023/01/12 06:23:31;;;;;;;4.80;0.75;;;7.50;99.90;;;;;;5068855;28;20040;-45
2023/01/12 06:26:00;;;;;;;5.72;1.05;;;8.50;99.90;;;;;;5068189;28;20509;-45
2023/01/12 06:28:27;;;;;;;10.32;1.48;;;9.90;99.90;;;;;;5068315;28;20089;-45
2023/01/12 06:30:57;;;;;;;3.17;0.65;;;7.60;99.90;;;;;;5066922;28;20040;-44
2023/01/12 06:33:24;;;;;;;6.70;1.02;;;8.30;99.90;;;;;;5068427;28;20037;-45
2023/01/12 06:35:50;;;;;;;5.07;1.00;;;7.60;99.90;;;;;;5067729;28;20614;-46
2023/01/12 06:38:15;;;;;;;3.22;0.88;;;7.70;99.90;;;;;;5068245;28;20537;-45
2023/01/12 06:40:41;;;;;;;4.38;1.08;;;8.70;99.90;;;;;;5068045;28;20048;-47
2023/01/12 06:43:07;;;;;;;8.23;1.00;;;8.60;99.90;;;;;;5068474;28;20040;-46
2023/01/12 06:45:32;;;;;;;6.53;1.00;;;7.70;99.90;;;;;;5068578;28;20044;-46
2023/01/12 06:47:58;;;;;;;5.15;0.82;;;7.80;99.90;;;;;;5068320;28;20044;-45
2023/01/12 06:50:24;;;;;;;6.50;0.50;;;8.20;99.90;;;;;;5068399;28;20298;-45
2023/01/12 06:52:50;;;;;;;3.65;0.50;;;7.80;99.90;;;;;;5068440;28;20144;-45
2023/01/12 06:55:16;;;;;;;1.63;0.85;;;9.90;99.90;;;;;;5068082;28;20736;-46
2023/01/12 06:57:43;;;;;;;3.65;0.43;;;7.90;99.90;;;;;;5068179;28;20123;-46
2023/01/12 07:00:13;;;;;;;2.72;0.43;;;8.00;99.90;;;;;;5049951;28;20510;-46
2023/01/12 07:02:38;;;;;;;1.67;0.32;;;8.00;99.90;;;;;;5068262;28;20042;-46
2023/01/12 07:05:05;;;;;;;2.20;0.50;;;8.00;99.90;;;;;;5067152;28;20551;-45
2023/01/12 07:07:30;;;;;;;2.25;0.43;;;8.10;99.90;;;;;;5068262;28;20041;-45
2023/01/12 07:09:56;;;;;;;3.88;0.50;;;8.60;99.90;;;;;;5067867;28;20059;-44
2023/01/12 07:12:22;;;;;;;0.80;0.20;;;8.20;99.90;;;;;;5067517;28;20060;-47
2023/01/12 07:14:48;;;;;;;1.52;0.40;;;8.40;99.90;;;;;;5067402;28;20045;-46
2023/01/12 07:17:13;;;;;;;3.83;0.38;;;8.20;99.90;;;;;;5067426;28;20503;-46
2023/01/12 07:19:39;;;;;;;2.13;0.45;;;8.20;99.90;;;;;;5067204;28;20044;-45
2023/01/12 07:22:05;;;;;;;2.00;0.52;;;8.20;99.90;;;;;;5067304;28;20048;-45
2023/01/12 07:24:30;;;;;;;4.32;0.47;;;8.40;99.90;;;;;;5067437;28;20151;-46
2023/01/12 07:26:57;;;;;;;1.10;0.32;;;8.60;99.90;;;;;;5067379;28;20149;-45
2023/01/12 07:29:26;;;;;;;1.50;0.30;;;8.40;99.90;;;;;;5066874;28;20048;-46
2023/01/12 07:31:52;;;;;;;2.40;0.40;;;8.40;99.90;;;;;;5066773;28;20732;-46
2023/01/12 07:34:18;;;;;;;1.83;0.30;;;8.50;99.90;;;;;;5066883;28;20048;-46
2023/01/12 07:36:47;;;;;;;3.78;0.45;;;8.50;99.90;;;;;;5067525;28;20384;-45
2023/01/12 07:39:13;;;;;;;1.63;0.85;;;8.50;99.90;;;;;;5067397;28;20047;-45
2023/01/12 07:44:23;;;;;;;2.78;0.73;;;8.50;99.90;;;;;;5066602;28;20102;-46
2023/01/12 07:46:48;;;;;;;2.92;0.40;;;8.60;99.90;;;;;;5066800;28;20052;-45
2023/01/12 07:49:14;;;;;;;1.67;0.40;;;9.00;99.90;;;;;;5066495;28;20037;-45
2023/01/12 07:51:40;;;;;;;3.58;0.70;;;8.60;99.90;;;;;;5066482;28;20040;-45
2023/01/12 07:54:06;;;;;;;3.28;0.75;;;8.60;99.90;;;;;;5049088;28;20381;-44
2023/01/12 07:56:31;;;;;;;3.45;0.63;;;8.70;99.90;;;;;;5067215;28;20051;-48
2023/01/12 07:58:57;;;;;;;2.88;0.60;;;8.70;99.90;;;;;;5067150;28;20491;-45
2023/01/12 08:01:23;;;;;;;4.60;1.10;;;9.00;99.90;;;;;;5066469;28;20124;-45
2023/01/12 08:03:48;;;;;;;3.92;0.88;;;8.80;99.90;;;;;;5066740;28;20052;-46
2023/01/12 08:06:14;;;;;;;3.17;1.20;;;8.80;99.90;;;;;;5066598;28;20545;-45
2023/01/12 08:08:40;;;;;;;4.18;1.05;;;9.10;99.90;;;;;;5066435;28;20548;-45
2023/01/12 08:11:09;;;;;;;4.47;1.90;;;8.80;99.90;;;;;;5066224;28;20040;-44
2023/01/12 08:13:36;;;;;;;4.75;0.93;;;8.80;99.90;;;;;;5066174;28;20510;-46
2023/01/12 08:16:16;;;;;;;5.75;1.08;;;9.00;99.90;;;;;;5066259;28;20584;-45
2023/01/12 08:18:48;;;;;;;7.93;1.55;;;8.90;99.90;;;;;;5066697;28;20054;-46
2023/01/12 08:21:18;;;;;;;3.83;1.20;;;8.90;99.90;;;;;;5066457;28;20428;-45
2023/01/12 08:23:50;;;;;;;5.43;1.60;;;9.20;99.90;;;;;;5066742;28;20427;-44
2023/01/12 08:26:22;;;;;;;5.20;1.50;;;8.90;99.90;;;;;;5066727;28;20032;-46
2023/01/12 08:28:58;;;;;;;6.82;1.27;;;9.30;99.90;;;;;;5066934;28;20052;-44
2023/01/12 08:31:24;;;;;;;11.65;1.95;;;9.00;99.90;;;;;;5065431;28;20040;-46
2023/01/12 08:33:53;;;;;;;9.55;1.75;;;9.00;99.90;;;;;;5066203;28;20045;-45
2023/01/12 08:36:19;;;;;;;9.95;2.63;;;9.10;99.90;;;;;;5064903;28;20193;-45
2023/01/12 08:38:45;;;;;;;12.20;3.15;;;9.40;99.90;;;;;;5066595;28;20147;-47
2023/01/12 08:44:01;;;;;;;14.93;3.10;;;9.20;99.90;;;;;;5066486;28;20052;-45
2023/01/12 08:46:35;;;;;;;24.35;3.20;;;9.20;99.90;;;;;;5066513;28;20395;-45
2023/01/12 08:49:06;;;;;;;15.10;2.17;;;9.30;99.90;;;;;;5066262;28;20089;-45
2023/01/12 08:51:33;;;;;;;22.83;3.13;;;9.40;99.90;;;;;;5066015;28;20055;-45
2023/01/12 08:54:00;;;;;;;16.50;2.22;;;9.50;99.90;;;;;;5066120;28;20051;-45
2023/01/12 08:56:25;;;;;;;24.02;2.17;;;9.60;99.90;;;;;;5065991;28;20045;-46
2023/01/12 08:58:51;;;;;;;20.27;2.17;;;9.50;99.90;;;;;;5065962;28;20052;-45
2023/01/12 09:01:18;;;;;;;25.30;2.45;;;9.70;99.90;;;;;;5065854;28;20052;-45
2023/01/12 09:03:45;;;;;;;18.58;1.90;;;9.70;99.90;;;;;;5069421;28;20099;-45
2023/01/12 09:06:16;;;;;;;24.55;3.22;;;9.70;99.90;;;;;;5069277;28;20092;-45
2023/01/12 09:08:42;;;;;;;27.83;4.28;;;9.70;99.90;;;;;;5069595;28;20040;-44
2023/01/12 09:11:09;;;;;;;21.10;2.50;;;9.80;99.90;;;;;;5068951;28;20105;-45
2023/01/12 09:13:36;;;;;;;32.53;3.15;;;9.70;99.90;;;;;;5069383;28;20098;-46
2023/01/12 09:16:07;;;;;;;25.02;2.75;;;9.80;99.90;;;;;;5069410;28;20044;-45
2023/01/12 09:18:34;;;;;;;19.45;2.15;;;9.90;99.90;;;;;;5069366;28;20056;-45
2023/01/12 09:21:11;;;;;;;16.75;2.72;;;10.00;99.90;;;;;;5069478;28;20040;-44
2023/01/12 09:23:37;;;;;;;20.15;2.05;;;10.00;99.90;;;;;;5069844;28;20048;-44
2023/01/12 09:26:06;;;;;;;17.50;2.72;;;10.00;99.90;;;;;;5069379;28;20079;-44
2023/01/12 09:28:32;;;;;;;23.45;2.58;;;10.50;99.90;;;;;;5070020;28;20049;-45
2023/01/12 09:31:07;;;;;;;14.27;1.88;;;10.20;99.90;;;;;;5070104;28;20069;-45
2023/01/12 09:33:36;;;;;;;17.75;2.05;;;10.20;99.90;;;;;;5069635;28;20040;-45
2023/01/12 09:36:04;;;;;;;17.20;2.03;;;10.10;99.90;;;;;;5068966;28;20072;-45
2023/01/12 09:38:30;;;;;;;21.58;3.00;;;10.10;99.90;;;;;;5069021;28;20159;-45
2023/01/12 09:40:58;;;;;;;19.10;2.72;;;10.50;99.90;;;;;;5069247;28;20059;-45
2023/01/12 09:49:24;;;;;;;19.52;2.17;;;10.20;99.90;;;;;;5060696;28;20059;-45
2023/01/12 09:52:18;;;;;;;19.42;1.70;;;10.50;99.90;;;;;;5065382;28;20055;-47
2023/01/12 09:54:48;;;;;;;20.58;2.55;;;10.10;99.90;;;;;;5067727;28;20048;-43
2023/01/12 09:57:35;;;;;;;17.63;1.73;;;10.10;99.90;;;;;;5067878;28;20068;-43
2023/01/12 10:00:11;;;;;;;19.20;2.53;;;10.10;99.90;;;;;;5067947;28;20102;-44
2023/01/12 10:02:40;;;;;;;20.08;2.95;;;10.20;99.90;;;;;;5068473;28;20131;-45
2023/01/12 10:05:14;;;;;;;14.55;1.20;;;10.30;99.90;;;;;;5067381;28;20124;-43
2023/01/12 10:07:39;;;;;;;21.88;2.15;;;10.20;99.90;;;;;;5067750;28;20135;-46
2023/01/12 10:10:06;;;;;;;19.08;2.13;;;10.60;99.90;;;;;;5067403;28;20538;-44
2023/01/12 10:12:40;;;;;;;15.15;2.15;;;10.20;99.90;;;;;;5067181;28;20076;-44
2023/01/12 10:15:39;;;;;;;27.38;3.47;;;10.20;99.90;;;;;;5068073;28;20044;-43
2023/01/12 10:18:12;;;;;;;19.70;2.35;;;10.20;99.90;;;;;;5023108;28;20056;-44
2023/01/12 10:20:42;;;;;;;18.60;1.92;;;10.30;99.90;;;;;;5068069;28;20558;-48
2023/01/12 10:23:08;;;;;;;22.55;2.22;;;10.30;99.90;;;;;;5030592;28;20060;-53
2023/01/12 10:25:34;;;;;;;27.08;2.78;;;10.30;99.90;;;;;;5059547;28;20967;-49
2023/01/12 10:28:06;;;;;;;24.55;2.83;;;10.40;99.90;;;;;;5064027;28;20555;-50
2023/01/12 10:30:37;;;;;;;18.48;1.95;;;10.30;99.90;;;;;;5063905;28;20082;-47
2023/01/12 10:33:21;;;;;;;20.10;3.38;;;10.70;99.90;;;;;;5064149;28;20055;-54
2023/01/12 10:36:09;;;;;;;16.42;1.65;;;10.30;99.90;;;;;;5063832;28;20068;-49
2023/01/12 10:38:38;;;;;;;19.02;1.55;;;9.80;99.90;;;;;;5064363;28;20679;-49
2023/01/12 10:41:16;;;;;;;17.58;4.65;;;10.70;99.90;;;;;;5064128;28;20693;-46
2023/01/12 10:44:02;;;;;;;15.93;1.60;;;10.50;99.90;;;;;;5064411;28;20803;-49
2023/01/12 10:46:32;;;;;;;18.42;1.80;;;10.50;99.90;;;;;;5056080;28;20494;-52
2023/01/12 10:49:21;;;;;;;18.83;2.00;;;10.50;99.90;;;;;;5061583;28;20055;-49
2023/01/12 10:51:53;;;;;;;16.65;1.75;;;10.50;99.90;;;;;;5063988;28;20048;-48
2023/01/12 10:54:23;;;;;;;17.00;2.78;;;10.50;99.90;;;;;;5064269;28;20044;-50
2023/01/12 10:57:04;;;;;;;20.85;2.45;;;10.60;99.90;;;;;;5045931;28;20131;-47
2023/01/12 10:59:39;;;;;;;24.02;2.20;;;10.60;99.90;;;;;;5063518;28;20116;-50
2023/01/12 11:02:07;;;;;;;12.70;1.75;;;10.60;99.90;;;;;;5063269;28;20473;-49
2023/01/12 11:04:49;;;;;;;17.85;2.67;;;10.30;99.90;;;;;;5063208;28;20045;-53
2023/01/12 11:07:27;;;;;;;16.65;2.58;;;10.70;99.90;;;;;;5064250;28;20040;-53
2023/01/12 11:09:56;;;;;;;14.30;1.60;;;11.00;99.90;;;;;;5064004;28;20041;-53
2023/01/12 11:12:35;;;;;;;13.20;1.92;;;11.00;99.90;;;;;;5063793;28;20055;-55
2023/01/12 11:15:16;;;;;;;8.82;0.90;;;10.60;99.90;;;;;;5063924;28;20053;-55
2023/01/12 11:18:11;;;;;;;12.20;2.20;;;10.70;99.90;;;;;;5064681;28;20044;-48
2023/01/12 11:20:44;;;;;;;17.52;1.70;;;10.70;99.90;;;;;;5066848;28;20052;-46
2023/01/12 11:23:16;;;;;;;15.32;1.98;;;11.00;99.90;;;;;;5068144;28;20048;-44
2023/01/12 11:25:45;;;;;;;11.20;2.40;;;10.70;99.90;;;;;;5066730;28;20041;-44
2023/01/12 11:28:20;;;;;;;20.75;1.88;;;10.70;99.90;;;;;;5067636;28;20153;-46
2023/01/12 11:30:57;;;;;;;9.85;1.45;;;10.70;99.90;;;;;;5067844;28;20122;-44
2023/01/12 11:33:32;;;;;;;12.13;1.23;;;11.00;99.90;;;;;;5067214;28;20047;-46
2023/01/12 11:36:14;;;;;;;13.02;1.30;;;10.70;99.90;;;;;;5067765;28;20078;-43
2023/01/12 11:38:44;;;;;;;20.35;2.90;;;10.70;99.90;;;;;;5067820;28;20044;-44
2023/01/12 11:41:33;;;;;;;15.52;2.17;;;11.00;99.90;;;;;;5067568;28;20043;-45
2023/01/12 11:44:22;;;;;;;20.05;1.55;;;10.70;99.90;;;;;;5067326;28;20051;-45
2023/01/12 11:47:04;;;;;;;11.40;2.08;;;10.70;99.90;;;;;;5067666;28;20041;-45
2023/01/12 11:50:07;;;;;;;16.15;1.50;;;10.70;99.90;;;;;;5067057;28;20112;-45
2023/01/12 11:52:34;;;;;;;14.13;3.63;;;10.80;99.90;;;;;;5066753;28;20486;-45
2023/01/12 11:55:00;;;;;;;13.80;1.75;;;10.80;99.90;;;;;;5066980;28;20703;-45
2023/01/12 11:57:47;;;;;;;16.38;1.38;;;10.80;99.90;;;;;;5067107;28;20520;-45
2023/01/12 12:01:01;;;;;;;10.50;1.85;;;10.90;99.90;;;;;;5067121;28;20078;-43
2023/01/12 12:03:40;;;;;;;8.82;1.17;;;10.90;99.90;;;;;;5049409;28;20064;-45
2023/01/12 12:06:29;;;;;;;16.42;1.85;;;10.90;99.90;;;;;;5067289;28;20047;-44
2023/01/12 12:09:26;;;;;;;12.70;1.42;;;10.80;99.90;;;;;;5067363;28;20155;-45
2023/01/12 12:11:59;;;;;;;15.52;1.63;;;10.80;99.90;;;;;;5067611;28;20484;-45
2023/01/12 12:14:48;;;;;;;15.95;1.15;;;10.80;99.90;;;;;;5067122;28;20056;-45
2023/01/12 12:17:18;;;;;;;9.57;1.45;;;10.80;99.90;;;;;;5067485;28;20048;-44
2023/01/12 12:19:52;;;;;;;15.88;2.55;;;10.90;99.90;;;;;;5067313;28;20036;-43
2023/01/12 12:22:42;;;;;;;13.70;1.35;;;10.80;99.90;;;;;;5067146;28;20044;-44
2023/01/12 12:25:22;;;;;;;6.68;1.85;;;10.80;99.90;;;;;;5066755;28;20052;-44
2023/01/12 12:27:50;;;;;;;13.25;1.52;;;10.80;99.90;;;;;;5066567;28;20063;-45
2023/01/12 12:30:54;;;;;;;10.50;0.98;;;10.80;99.90;;;;;;5066832;28;20072;-45
2023/01/12 12:33:36;;;;;;;12.45;1.30;;;10.80;99.90;;;;;;5066741;28;20052;-45
2023/01/12 12:36:07;;;;;;;;;;;10.80;99.90;;;;;;5067796;28;20047;-45
2023/01/12 12:39:17;;;;;;;16.48;1.50;;;10.80;99.90;;;;;;5067018;28;19966;-45
2023/01/12 12:45:20;;;;;;;10.15;1.73;;;10.80;99.90;;;;;;4985049;28;20090;-45
2023/01/12 12:47:55;;;;;;;11.63;1.35;;;10.70;99.90;;;;;;5064335;28;20044;-45
2023/01/12 12:50:28;;;;;;;13.88;1.95;;;10.70;99.90;;;;;;5066995;28;20508;-43
2023/01/12 12:53:19;;;;;;;18.17;2.17;;;10.60;99.90;;;;;;5066989;28;20067;-45
2023/01/12 12:55:46;;;;;;;13.50;1.20;;;10.50;99.90;;;;;;5066223;28;20056;-44
2023/01/12 12:58:21;;;;;;;19.23;3.08;;;10.90;99.90;;;;;;5066084;28;20048;-43
2023/01/12 13:00:49;;;;;;;21.92;1.90;;;10.50;99.90;;;;;;5066457;28;20509;-45
2023/01/12 13:03:39;;;;;;;21.70;2.90;;;10.50;99.90;;;;;;5066210;28;20045;-44
2023/01/12 13:06:23;;;;;;;12.02;2.10;;;10.50;99.90;;;;;;5066118;28;20040;-44
2023/01/12 13:09:09;;;;;;;18.80;2.08;;;10.40;99.90;;;;;;5066042;28;20599;-45
2023/01/12 13:11:54;;;;;;;17.23;3.95;;;10.40;99.90;;;;;;5065771;28;20048;-46
2023/01/12 13:14:29;;;;;;;19.27;1.85;;;10.90;99.90;;;;;;5065847;28;20044;-46
2023/01/12 13:17:00;;;;;;;14.07;1.65;;;10.70;99.90;;;;;;5066418;28;20123;-46
2023/01/12 13:19:41;;;;;;;17.13;2.13;;;10.80;99.90;;;;;;5066352;28;20116;-50
2023/01/12 13:22:29;;;;;;;15.65;2.28;;;10.40;99.90;;;;;;5066370;28;20051;-47
2023/01/12 13:24:56;;;;;;;17.63;2.53;;;10.60;99.90;;;;;;5044923;28;20057;-45
2023/01/12 13:27:54;;;;;;;17.63;2.20;;;10.70;99.90;;;;;;5043912;28;20045;-47
2023/01/12 13:30:28;;;;;;;24.80;4.45;;;10.50;99.90;;;;;;5018370;28;20056;-44
2023/01/12 13:33:16;;;;;;;20.48;2.42;;;10.50;99.90;;;;;;5055394;28;20052;-49
2023/01/12 13:35:45;;;;;;;19.13;2.60;;;10.50;99.90;;;;;;5060282;28;20040;-48
2023/01/12 13:38:14;;;;;;;24.02;3.50;;;10.50;99.90;;;;;;5061206;28;20836;-49
2023/01/12 13:40:40;;;;;;;28.73;4.28;;;10.30;99.90;;;;;;5061027;28;20565;-48
2023/01/12 13:43:32;;;;;;;19.02;2.45;;;10.90;99.90;;;;;;5060305;28;20394;-48
2023/01/12 13:46:13;;;;;;;21.92;2.83;;;10.50;99.90;;;;;;5047570;28;20172;-48
2023/01/12 13:48:44;;;;;;;24.20;2.55;;;10.70;99.90;;;;;;5028558;28;20059;-48
2023/01/12 13:51:25;;;;;;;21.60;1.90;;;10.60;99.90;;;;;;5064303;28;20045;-46
2023/01/12 13:54:06;;;;;;;18.58;2.22;;;10.50;99.90;;;;;;5045587;28;20044;-46
2023/01/12 13:56:32;;;;;;;20.02;3.20;;;10.50;99.90;;;;;;5044879;28;20056;-50